»·PEaware :: N5002T KSNA-KSNA

N5002T :: KSNA-KSNA

FLIGHT INFORMATION

Flight Status: Arrived
Operator: Privately registered:
United States
More flights under this callsign
Pilot: Hunter M. (19355)
Aircraft: CESSNA 172 SKYHAWK
(C172)
More flights by this aircraft type
Origin: KSNA John Wayne-Orange Co
United States
Destination: KSNA John Wayne-Orange Co
United States
More flights between these airports :: More routes between these airports
Route: SLI
File this flight plan on PilotEdge
Remarks: Practice approaches
Altitude:
(Current/Filed)
3,000ft
Speed:
(Current/Filed)
118kts
Departed: 20-Jun-19 12:36 PM
Arrived: 20-Jun-19 01:33 PM
Distance/Time
Traveled:
0nm/0:57
Distance/Time
To Go:
Arrived

Flight Plot

Page will automatically refresh every two minutes.


Map Options




Map Legend


Flown Route
Filed Route
Departure Airport
Arrival Airport
Navaid (VOR, NDB)
Fix

Horizontal Profiles

Position Reports

Time Latitude Longitude Heading Altitude Ground
Speed
20-Jun-19 12:01 33.667443 -117.870774 37 59ft 0kts
20-Jun-19 12:02 33.667443 -117.870774 37 59ft 0kts
20-Jun-19 12:03 33.667443 -117.870774 37 59ft 0kts
20-Jun-19 12:04 33.667443 -117.870774 37 59ft 0kts
20-Jun-19 12:05 33.667443 -117.870774 37 59ft 0kts
20-Jun-19 12:06 33.667443 -117.870774 37 59ft 0kts
20-Jun-19 12:07 33.667443 -117.870774 37 59ft 0kts
20-Jun-19 12:08 33.667443 -117.870774 37 59ft 0kts
20-Jun-19 12:09 33.667443 -117.870774 37 59ft 0kts
20-Jun-19 12:10 33.667443 -117.870774 37 59ft 0kts
20-Jun-19 12:11 33.667443 -117.870774 37 59ft 0kts
20-Jun-19 12:12 33.667443 -117.870774 37 59ft 0kts
20-Jun-19 12:13 33.667443 -117.870774 37 59ft 0kts
20-Jun-19 12:14 33.667443 -117.870774 37 59ft 0kts
20-Jun-19 12:15 33.667443 -117.870774 37 59ft 0kts
20-Jun-19 12:16 33.667443 -117.870774 37 59ft 0kts
20-Jun-19 12:17 33.667443 -117.870774 37 59ft 0kts
20-Jun-19 12:18 33.667443 -117.870774 37 59ft 0kts
20-Jun-19 12:19 33.667443 -117.870774 37 59ft 0kts
20-Jun-19 12:20 33.667443 -117.870774 37 59ft 0kts
20-Jun-19 12:21 33.667443 -117.870774 37 59ft 0kts
20-Jun-19 12:22 33.667443 -117.870774 37 59ft 0kts
20-Jun-19 12:23 33.667443 -117.870774 37 59ft 0kts
20-Jun-19 12:24 33.667443 -117.870774 37 59ft 0kts
20-Jun-19 12:25 33.667443 -117.870774 37 59ft 0kts
20-Jun-19 12:26 33.668060 -117.871197 1 59ft 11kts
20-Jun-19 12:27 33.670413 -117.870000 39 59ft 17kts
20-Jun-19 12:28 33.673832 -117.867213 29 59ft 17kts
20-Jun-19 12:29 33.677956 -117.864713 27 59ft 12kts
20-Jun-19 12:30 33.679668 -117.863821 332 59ft 0kts
20-Jun-19 12:31 33.679669 -117.863822 332 59ft 0kts
20-Jun-19 12:32 33.679670 -117.863822 332 59ft 0kts
20-Jun-19 12:33 33.679670 -117.863823 332 59ft 0kts
20-Jun-19 12:34 33.679876 -117.864301 229 59ft 3kts
20-Jun-19 12:35 33.672165 -117.869235 211 207ft 80kts
20-Jun-19 12:36 33.657296 -117.888148 241 1112ft 79kts
20-Jun-19 12:37 33.646285 -117.913983 241 1774ft 93kts
20-Jun-19 12:38 33.643672 -117.939895 357 2351ft 98kts
20-Jun-19 12:39 33.668934 -117.929949 14 2991ft 98kts
20-Jun-19 12:40 33.698079 -117.918158 14 3004ft 117kts
20-Jun-19 12:41 33.726307 -117.906783 14 2990ft 100kts
20-Jun-19 12:42 33.752045 -117.894988 16 3000ft 99kts
20-Jun-19 12:43 33.777602 -117.883162 16 2988ft 93kts
20-Jun-19 12:44 33.801400 -117.872062 16 3001ft 91kts
20-Jun-19 12:45 33.825181 -117.861079 15 3001ft 91kts
20-Jun-19 12:46 33.848988 -117.850211 15 3003ft 91kts
20-Jun-19 12:47 33.872863 -117.839438 15 3003ft 91kts
20-Jun-19 12:48 33.893007 -117.823963 92 3014ft 98kts
20-Jun-19 12:49 33.891794 -117.790888 88 3007ft 98kts
20-Jun-19 12:50 33.890567 -117.758294 109 3025ft 99kts
20-Jun-19 12:51 33.865823 -117.752867 178 3016ft 94kts
20-Jun-19 12:52 33.841627 -117.762874 205 3012ft 91kts
20-Jun-19 12:53 33.819262 -117.776065 214 2889ft 82kts
20-Jun-19 12:54 33.799534 -117.790274 211 2677ft 84kts
20-Jun-19 12:55 33.780301 -117.802715 209 2183ft 73kts
20-Jun-19 12:56 33.762300 -117.815389 208 1800ft 75kts
20-Jun-19 12:57 33.743458 -117.825496 204 1484ft 73kts
20-Jun-19 12:58 33.724181 -117.837295 211 1038ft 79kts
20-Jun-19 12:59 33.705299 -117.850714 205 646ft 77kts
20-Jun-19 13:00 33.685999 -117.862088 209 201ft 75kts
20-Jun-19 13:01 33.670455 -117.876582 237 460ft 73kts
20-Jun-19 13:02 33.658678 -117.896442 230 1113ft 72kts
20-Jun-19 13:03 33.646106 -117.916077 230 1824ft 79kts
20-Jun-19 13:04 33.629217 -117.940847 230 2019ft 112kts
20-Jun-19 13:05 33.610001 -117.968403 230 1991ft 100kts
20-Jun-19 13:06 33.592348 -117.994036 244 1995ft 99kts
20-Jun-19 13:07 33.613490 -117.995916 19 2519ft 100kts
20-Jun-19 13:08 33.638798 -117.982213 19 3019ft 105kts
20-Jun-19 13:09 33.664270 -117.968348 19 2983ft 91kts
20-Jun-19 13:10 33.686936 -117.955789 19 3000ft 89kts
20-Jun-19 13:11 33.709597 -117.943330 19 2999ft 89kts
20-Jun-19 13:12 33.732290 -117.930967 19 2999ft 89kts
20-Jun-19 13:13 33.755039 -117.918688 18 2998ft 89kts
20-Jun-19 13:14 33.777771 -117.906570 18 2997ft 89kts
20-Jun-19 13:15 33.800573 -117.894522 18 2998ft 89kts
20-Jun-19 13:16 33.823514 -117.882526 18 3000ft 90kts
20-Jun-19 13:17 33.846542 -117.870613 18 3001ft 90kts
20-Jun-19 13:18 33.869220 -117.857854 51 2992ft 95kts
20-Jun-19 13:19 33.880987 -117.829788 57 3029ft 94kts
20-Jun-19 13:20 33.894045 -117.801960 54 3027ft 94kts
20-Jun-19 13:21 33.900862 -117.773232 133 3079ft 92kts
20-Jun-19 13:22 33.879071 -117.755826 178 3056ft 94kts
20-Jun-19 13:23 33.853611 -117.756330 201 3092ft 92kts
20-Jun-19 13:24 33.829956 -117.767414 209 3098ft 91kts
20-Jun-19 13:25 33.809249 -117.782973 218 2932ft 86kts
20-Jun-19 13:26 33.788033 -117.799035 215 2364ft 90kts
20-Jun-19 13:27 33.766923 -117.812422 202 1970ft 81kts
20-Jun-19 13:28 33.745679 -117.824320 208 1519ft 85kts
20-Jun-19 13:29 33.724694 -117.837819 210 1030ft 77kts
20-Jun-19 13:30 33.706637 -117.849129 207 633ft 71kts
20-Jun-19 13:31 33.690032 -117.859749 205 285ft 65kts
20-Jun-19 13:32 33.676160 -117.868509 208 59ft 20kts
20-Jun-19 13:33 33.675817 -117.869881 295 59ft 2kts

Navigation Log

Ident Type
Flight plan parsing failed, navigation log unavailable